sensor_id;sensor_type;location;lat;lon;timestamp;P1;durP1;ratioP1;P2;durP2;ratioP2
13687;SDS011;6916;51.504;7.416;2022-09-20T00:00:43;10.97;;;2.83;;
13687;SDS011;6916;51.504;7.416;2022-09-20T00:06:07;11.83;;;2.60;;
13687;SDS011;6916;51.504;7.416;2022-09-20T00:11:31;7.80;;;2.33;;
13687;SDS011;6916;51.504;7.416;2022-09-20T00:16:55;6.93;;;2.00;;
13687;SDS011;6916;51.504;7.416;2022-09-20T00:22:16;8.23;;;2.20;;
13687;SDS011;6916;51.504;7.416;2022-09-20T00:27:39;10.20;;;2.50;;
13687;SDS011;6916;51.504;7.416;2022-09-20T00:33:01;9.00;;;2.37;;
13687;SDS011;6916;51.504;7.416;2022-09-20T00:38:23;8.37;;;2.53;;
13687;SDS011;6916;51.504;7.416;2022-09-20T00:43:45;14.50;;;2.70;;
13687;SDS011;6916;51.504;7.416;2022-09-20T00:49:12;10.07;;;2.43;;
13687;SDS011;6916;51.504;7.416;2022-09-20T00:54:36;9.90;;;2.43;;
13687;SDS011;6916;51.504;7.416;2022-09-20T00:59:58;8.63;;;2.83;;
13687;SDS011;6916;51.504;7.416;2022-09-20T01:05:20;12.17;;;2.77;;
13687;SDS011;6916;51.504;7.416;2022-09-20T01:10:42;7.97;;;2.63;;
13687;SDS011;6916;51.504;7.416;2022-09-20T01:16:05;9.13;;;2.40;;
13687;SDS011;6916;51.504;7.416;2022-09-20T01:21:28;10.40;;;2.80;;
13687;SDS011;6916;51.504;7.416;2022-09-20T01:26:59;13.30;;;2.70;;
13687;SDS011;6916;51.504;7.416;2022-09-20T01:32:34;7.93;;;2.90;;
13687;SDS011;6916;51.504;7.416;2022-09-20T01:38:13;12.43;;;2.90;;
13687;SDS011;6916;51.504;7.416;2022-09-20T01:49:23;11.87;;;2.90;;
13687;SDS011;6916;51.504;7.416;2022-09-20T01:55:17;10.87;;;3.40;;
13687;SDS011;6916;51.504;7.416;2022-09-20T02:00:57;12.33;;;3.67;;
13687;SDS011;6916;51.504;7.416;2022-09-20T02:06:30;13.07;;;3.70;;
13687;SDS011;6916;51.504;7.416;2022-09-20T02:23:31;11.70;;;3.90;;
13687;SDS011;6916;51.504;7.416;2022-09-20T02:46:15;12.90;;;3.70;;
13687;SDS011;6916;51.504;7.416;2022-09-20T02:51:46;10.33;;;3.70;;
13687;SDS011;6916;51.504;7.416;2022-09-20T03:19:38;11.03;;;4.10;;
13687;SDS011;6916;51.504;7.416;2022-09-20T03:31:06;9.90;;;4.60;;
13687;SDS011;6916;51.504;7.416;2022-09-20T03:42:29;11.67;;;4.90;;
13687;SDS011;6916;51.504;7.416;2022-09-20T04:05:11;12.40;;;5.27;;
13687;SDS011;6916;51.504;7.416;2022-09-20T04:22:29;8.03;;;4.87;;
13687;SDS011;6916;51.504;7.416;2022-09-20T04:27:59;9.93;;;5.40;;
13687;SDS011;6916;51.504;7.416;2022-09-20T04:33:27;11.63;;;5.30;;
13687;SDS011;6916;51.504;7.416;2022-09-20T04:39:03;13.60;;;5.40;;
13687;SDS011;6916;51.504;7.416;2022-09-20T04:56:19;12.40;;;5.50;;
13687;SDS011;6916;51.504;7.416;2022-09-20T05:08:10;14.27;;;6.00;;
13687;SDS011;6916;51.504;7.416;2022-09-20T05:13:52;14.30;;;6.57;;
13687;SDS011;6916;51.504;7.416;2022-09-20T05:42:13;12.90;;;6.80;;
13687;SDS011;6916;51.504;7.416;2022-09-20T05:47:43;14.93;;;5.63;;
13687;SDS011;6916;51.504;7.416;2022-09-20T06:11:07;12.77;;;6.40;;
13687;SDS011;6916;51.504;7.416;2022-09-20T06:16:39;15.50;;;5.93;;
13687;SDS011;6916;51.504;7.416;2022-09-20T06:22:11;14.57;;;7.10;;
13687;SDS011;6916;51.504;7.416;2022-09-20T06:44:30;15.33;;;6.57;;
13687;SDS011;6916;51.504;7.416;2022-09-20T06:49:52;15.30;;;6.87;;
13687;SDS011;6916;51.504;7.416;2022-09-20T06:55:16;15.87;;;6.73;;
13687;SDS011;6916;51.504;7.416;2022-09-20T07:00:42;13.67;;;6.40;;
13687;SDS011;6916;51.504;7.416;2022-09-20T07:06:04;16.57;;;7.17;;
13687;SDS011;6916;51.504;7.416;2022-09-20T07:11:27;12.30;;;6.43;;
13687;SDS011;6916;51.504;7.416;2022-09-20T07:16:50;11.00;;;4.63;;
13687;SDS011;6916;51.504;7.416;2022-09-20T07:22:12;9.17;;;4.03;;
13687;SDS011;6916;51.504;7.416;2022-09-20T07:27:35;7.17;;;2.93;;
13687;SDS011;6916;51.504;7.416;2022-09-20T07:32:57;9.57;;;2.20;;
13687;SDS011;6916;51.504;7.416;2022-09-20T07:38:19;5.20;;;1.50;;
13687;SDS011;6916;51.504;7.416;2022-09-20T07:43:42;6.97;;;1.37;;
13687;SDS011;6916;51.504;7.416;2022-09-20T07:49:05;6.07;;;1.47;;
13687;SDS011;6916;51.504;7.416;2022-09-20T07:54:27;6.67;;;2.00;;
13687;SDS011;6916;51.504;7.416;2022-09-20T07:59:49;6.83;;;1.90;;
13687;SDS011;6916;51.504;7.416;2022-09-20T08:05:13;5.57;;;2.13;;
13687;SDS011;6916;51.504;7.416;2022-09-20T08:10:35;7.57;;;2.37;;
13687;SDS011;6916;51.504;7.416;2022-09-20T08:16:00;9.10;;;2.00;;
13687;SDS011;6916;51.504;7.416;2022-09-20T08:21:25;9.30;;;2.57;;
13687;SDS011;6916;51.504;7.416;2022-09-20T08:26:48;8.27;;;2.80;;
13687;SDS011;6916;51.504;7.416;2022-09-20T08:32:10;7.87;;;2.80;;
13687;SDS011;6916;51.504;7.416;2022-09-20T08:37:32;8.50;;;2.83;;
13687;SDS011;6916;51.504;7.416;2022-09-20T08:42:55;9.30;;;3.30;;
13687;SDS011;6916;51.504;7.416;2022-09-20T08:48:18;8.63;;;3.30;;
13687;SDS011;6916;51.504;7.416;2022-09-20T08:53:52;8.73;;;3.03;;
13687;SDS011;6916;51.504;7.416;2022-09-20T08:59:16;11.50;;;3.30;;
13687;SDS011;6916;51.504;7.416;2022-09-20T09:04:40;10.30;;;4.33;;
13687;SDS011;6916;51.504;7.416;2022-09-20T09:10:03;11.90;;;3.07;;
13687;SDS011;6916;51.504;7.416;2022-09-20T09:15:35;9.77;;;3.33;;
13687;SDS011;6916;51.504;7.416;2022-09-20T09:20:58;5.90;;;2.87;;
13687;SDS011;6916;51.504;7.416;2022-09-20T09:26:21;10.80;;;2.77;;
13687;SDS011;6916;51.504;7.416;2022-09-20T09:31:45;7.90;;;2.23;;
13687;SDS011;6916;51.504;7.416;2022-09-20T09:37:28;10.13;;;2.77;;
13687;SDS011;6916;51.504;7.416;2022-09-20T09:42:56;8.73;;;3.33;;
13687;SDS011;6916;51.504;7.416;2022-09-20T09:48:27;7.87;;;2.93;;
13687;SDS011;6916;51.504;7.416;2022-09-20T09:53:51;8.73;;;2.93;;
13687;SDS011;6916;51.504;7.416;2022-09-20T09:59:19;9.90;;;2.23;;
13687;SDS011;6916;51.504;7.416;2022-09-20T10:05:10;5.90;;;1.40;;
13687;SDS011;6916;51.504;7.416;2022-09-20T10:10:55;6.63;;;1.37;;
13687;SDS011;6916;51.504;7.416;2022-09-20T10:16:36;5.00;;;1.40;;
13687;SDS011;6916;51.504;7.416;2022-09-20T10:22:33;2.77;;;0.80;;
13687;SDS011;6916;51.504;7.416;2022-09-20T10:33:52;5.17;;;0.77;;
13687;SDS011;6916;51.504;7.416;2022-09-20T10:39:44;5.87;;;0.90;;
13687;SDS011;6916;51.504;7.416;2022-09-20T11:02:16;3.10;;;0.50;;
13687;SDS011;6916;51.504;7.416;2022-09-20T11:07:55;5.40;;;0.70;;
13687;SDS011;6916;51.504;7.416;2022-09-20T11:18:49;3.40;;;0.50;;
13687;SDS011;6916;51.504;7.416;2022-09-20T11:24:38;2.60;;;0.70;;
13687;SDS011;6916;51.504;7.416;2022-09-20T11:30:04;2.13;;;0.47;;
13687;SDS011;6916;51.504;7.416;2022-09-20T11:35:36;2.90;;;0.60;;
13687;SDS011;6916;51.504;7.416;2022-09-20T11:46:28;4.03;;;0.50;;
13687;SDS011;6916;51.504;7.416;2022-09-20T11:52:04;3.03;;;0.57;;
13687;SDS011;6916;51.504;7.416;2022-09-20T11:57:59;1.50;;;0.67;;
13687;SDS011;6916;51.504;7.416;2022-09-20T12:03:24;1.90;;;0.80;;
13687;SDS011;6916;51.504;7.416;2022-09-20T12:08:51;1.07;;;0.40;;
13687;SDS011;6916;51.504;7.416;2022-09-20T12:14:23;2.83;;;0.70;;
13687;SDS011;6916;51.504;7.416;2022-09-20T12:19:46;2.40;;;0.80;;
13687;SDS011;6916;51.504;7.416;2022-09-20T12:36:42;4.90;;;0.97;;
13687;SDS011;6916;51.504;7.416;2022-09-20T12:47:32;3.40;;;0.60;;
13687;SDS011;6916;51.504;7.416;2022-09-20T12:52:56;2.03;;;0.63;;
13687;SDS011;6916;51.504;7.416;2022-09-20T12:58:38;4.23;;;1.00;;
13687;SDS011;6916;51.504;7.416;2022-09-20T13:10:23;5.73;;;1.37;;
13687;SDS011;6916;51.504;7.416;2022-09-20T13:15:50;3.93;;;1.63;;
13687;SDS011;6916;51.504;7.416;2022-09-20T13:21:14;2.83;;;0.53;;
13687;SDS011;6916;51.504;7.416;2022-09-20T13:26:40;3.43;;;0.50;;
13687;SDS011;6916;51.504;7.416;2022-09-20T13:37:37;5.47;;;0.90;;
13687;SDS011;6916;51.504;7.416;2022-09-20T13:43:04;2.00;;;0.50;;
13687;SDS011;6916;51.504;7.416;2022-09-20T13:48:37;8.40;;;0.73;;
13687;SDS011;6916;51.504;7.416;2022-09-20T13:54:19;2.30;;;0.67;;
13687;SDS011;6916;51.504;7.416;2022-09-20T13:59:43;4.78;;;0.75;;
13687;SDS011;6916;51.504;7.416;2022-09-20T14:05:16;2.60;;;0.77;;
13687;SDS011;6916;51.504;7.416;2022-09-20T14:10:39;1.97;;;1.03;;
13687;SDS011;6916;51.504;7.416;2022-09-20T14:16:03;3.23;;;0.90;;
13687;SDS011;6916;51.504;7.416;2022-09-20T14:21:28;2.88;;;1.38;;
13687;SDS011;6916;51.504;7.416;2022-09-20T14:27:00;4.07;;;1.87;;
13687;SDS011;6916;51.504;7.416;2022-09-20T14:32:33;3.93;;;0.60;;
13687;SDS011;6916;51.504;7.416;2022-09-20T14:37:59;4.13;;;0.53;;
13687;SDS011;6916;51.504;7.416;2022-09-20T14:43:30;2.90;;;0.80;;
13687;SDS011;6916;51.504;7.416;2022-09-20T14:48:54;1.73;;;0.63;;
13687;SDS011;6916;51.504;7.416;2022-09-20T14:54:59;3.23;;;0.63;;
13687;SDS011;6916;51.504;7.416;2022-09-20T15:00:22;3.13;;;0.53;;
13687;SDS011;6916;51.504;7.416;2022-09-20T15:05:45;5.43;;;1.50;;
13687;SDS011;6916;51.504;7.416;2022-09-20T15:11:15;4.40;;;2.27;;
13687;SDS011;6916;51.504;7.416;2022-09-20T15:16:38;4.37;;;0.77;;
13687;SDS011;6916;51.504;7.416;2022-09-20T15:22:00;2.47;;;0.30;;
13687;SDS011;6916;51.504;7.416;2022-09-20T15:27:22;4.97;;;0.50;;
13687;SDS011;6916;51.504;7.416;2022-09-20T15:32:44;2.60;;;0.47;;
13687;SDS011;6916;51.504;7.416;2022-09-20T15:38:07;5.10;;;0.60;;
13687;SDS011;6916;51.504;7.416;2022-09-20T15:43:32;2.67;;;0.27;;
13687;SDS011;6916;51.504;7.416;2022-09-20T15:48:54;2.33;;;0.53;;
13687;SDS011;6916;51.504;7.416;2022-09-20T15:54:17;4.00;;;0.50;;
13687;SDS011;6916;51.504;7.416;2022-09-20T15:59:39;2.30;;;0.40;;
13687;SDS011;6916;51.504;7.416;2022-09-20T16:05:01;4.63;;;0.73;;
13687;SDS011;6916;51.504;7.416;2022-09-20T16:10:24;3.53;;;0.30;;
13687;SDS011;6916;51.504;7.416;2022-09-20T16:15:51;2.47;;;0.60;;
13687;SDS011;6916;51.504;7.416;2022-09-20T16:21:17;1.37;;;0.73;;
13687;SDS011;6916;51.504;7.416;2022-09-20T16:26:40;3.50;;;0.67;;
13687;SDS011;6916;51.504;7.416;2022-09-20T16:32:02;4.37;;;0.60;;
13687;SDS011;6916;51.504;7.416;2022-09-20T16:37:26;3.30;;;0.80;;
13687;SDS011;6916;51.504;7.416;2022-09-20T16:42:53;4.10;;;0.70;;
13687;SDS011;6916;51.504;7.416;2022-09-20T16:48:19;3.27;;;1.10;;
13687;SDS011;6916;51.504;7.416;2022-09-20T16:53:41;3.63;;;0.80;;
13687;SDS011;6916;51.504;7.416;2022-09-20T16:59:04;4.90;;;0.77;;
13687;SDS011;6916;51.504;7.416;2022-09-20T17:04:28;3.33;;;0.50;;
13687;SDS011;6916;51.504;7.416;2022-09-20T17:09:50;4.00;;;0.87;;
13687;SDS011;6916;51.504;7.416;2022-09-20T17:15:13;3.67;;;1.33;;
13687;SDS011;6916;51.504;7.416;2022-09-20T17:20:35;3.07;;;1.40;;
13687;SDS011;6916;51.504;7.416;2022-09-20T17:26:01;3.40;;;0.30;;
13687;SDS011;6916;51.504;7.416;2022-09-20T17:31:28;2.30;;;0.60;;
13687;SDS011;6916;51.504;7.416;2022-09-20T17:36:54;2.47;;;0.67;;
13687;SDS011;6916;51.504;7.416;2022-09-20T17:42:16;3.73;;;0.80;;
13687;SDS011;6916;51.504;7.416;2022-09-20T17:47:38;4.37;;;0.50;;
13687;SDS011;6916;51.504;7.416;2022-09-20T17:53:04;2.53;;;0.60;;
13687;SDS011;6916;51.504;7.416;2022-09-20T17:58:27;3.27;;;1.33;;
13687;SDS011;6916;51.504;7.416;2022-09-20T18:03:49;3.40;;;0.70;;
13687;SDS011;6916;51.504;7.416;2022-09-20T18:09:15;3.53;;;0.57;;
13687;SDS011;6916;51.504;7.416;2022-09-20T18:14:39;2.97;;;0.40;;
13687;SDS011;6916;51.504;7.416;2022-09-20T18:20:01;4.27;;;2.60;;
13687;SDS011;6916;51.504;7.416;2022-09-20T18:25:23;7.30;;;1.90;;
13687;SDS011;6916;51.504;7.416;2022-09-20T18:30:45;3.70;;;1.30;;
13687;SDS011;6916;51.504;7.416;2022-09-20T18:36:07;3.40;;;1.10;;
13687;SDS011;6916;51.504;7.416;2022-09-20T18:41:30;5.10;;;1.30;;
13687;SDS011;6916;51.504;7.416;2022-09-20T18:46:54;8.47;;;2.43;;
13687;SDS011;6916;51.504;7.416;2022-09-20T18:52:16;9.00;;;3.33;;
13687;SDS011;6916;51.504;7.416;2022-09-20T18:57:44;10.67;;;3.50;;
13687;SDS011;6916;51.504;7.416;2022-09-20T19:03:18;7.63;;;4.20;;
13687;SDS011;6916;51.504;7.416;2022-09-20T19:08:52;8.03;;;4.33;;
13687;SDS011;6916;51.504;7.416;2022-09-20T19:19:53;8.53;;;7.10;;
13687;SDS011;6916;51.504;7.416;2022-09-20T19:25:25;16.23;;;7.83;;
13687;SDS011;6916;51.504;7.416;2022-09-20T19:30:51;15.90;;;7.83;;
13687;SDS011;6916;51.504;7.416;2022-09-20T19:36:14;14.93;;;9.03;;
13687;SDS011;6916;51.504;7.416;2022-09-20T19:47:53;11.87;;;6.03;;
13687;SDS011;6916;51.504;7.416;2022-09-20T19:53:16;10.50;;;7.00;;
13687;SDS011;6916;51.504;7.416;2022-09-20T19:58:41;8.83;;;4.37;;
13687;SDS011;6916;51.504;7.416;2022-09-20T20:04:05;6.33;;;4.20;;
13687;SDS011;6916;51.504;7.416;2022-09-20T20:21:11;8.13;;;3.53;;
13687;SDS011;6916;51.504;7.416;2022-09-20T20:26:37;10.00;;;4.07;;
13687;SDS011;6916;51.504;7.416;2022-09-20T20:32:00;6.73;;;3.27;;
13687;SDS011;6916;51.504;7.416;2022-09-20T20:37:23;7.33;;;3.50;;
13687;SDS011;6916;51.504;7.416;2022-09-20T20:42:47;7.47;;;3.20;;
13687;SDS011;6916;51.504;7.416;2022-09-20T20:48:09;8.20;;;3.20;;
13687;SDS011;6916;51.504;7.416;2022-09-20T20:53:32;4.47;;;3.10;;
13687;SDS011;6916;51.504;7.416;2022-09-20T20:58:55;5.17;;;3.17;;
13687;SDS011;6916;51.504;7.416;2022-09-20T21:04:21;6.63;;;3.63;;
13687;SDS011;6916;51.504;7.416;2022-09-20T21:09:43;5.83;;;4.10;;
13687;SDS011;6916;51.504;7.416;2022-09-20T21:15:06;5.40;;;3.53;;
13687;SDS011;6916;51.504;7.416;2022-09-20T21:20:29;5.03;;;3.67;;
13687;SDS011;6916;51.504;7.416;2022-09-20T21:26:04;5.00;;;3.80;;
13687;SDS011;6916;51.504;7.416;2022-09-20T21:31:34;7.00;;;3.57;;
13687;SDS011;6916;51.504;7.416;2022-09-20T21:36:57;5.43;;;3.87;;
13687;SDS011;6916;51.504;7.416;2022-09-20T21:42:20;6.70;;;3.97;;
13687;SDS011;6916;51.504;7.416;2022-09-20T21:47:43;7.17;;;3.50;;
13687;SDS011;6916;51.504;7.416;2022-09-20T21:53:09;5.83;;;3.13;;
13687;SDS011;6916;51.504;7.416;2022-09-20T21:58:31;4.97;;;3.37;;
13687;SDS011;6916;51.504;7.416;2022-09-20T22:03:55;7.47;;;3.53;;
13687;SDS011;6916;51.504;7.416;2022-09-20T22:09:19;6.80;;;3.50;;
13687;SDS011;6916;51.504;7.416;2022-09-20T22:14:41;6.13;;;3.63;;
13687;SDS011;6916;51.504;7.416;2022-09-20T22:20:05;6.00;;;2.90;;
13687;SDS011;6916;51.504;7.416;2022-09-20T22:25:27;4.37;;;3.57;;
13687;SDS011;6916;51.504;7.416;2022-09-20T22:30:50;6.00;;;3.03;;
13687;SDS011;6916;51.504;7.416;2022-09-20T22:36:12;7.30;;;3.80;;
13687;SDS011;6916;51.504;7.416;2022-09-20T22:41:38;5.53;;;3.37;;
13687;SDS011;6916;51.504;7.416;2022-09-20T22:47:01;6.40;;;3.47;;
13687;SDS011;6916;51.504;7.416;2022-09-20T22:52:24;5.50;;;3.30;;
13687;SDS011;6916;51.504;7.416;2022-09-20T22:57:50;6.77;;;3.33;;
13687;SDS011;6916;51.504;7.416;2022-09-20T23:03:12;7.93;;;3.43;;
13687;SDS011;6916;51.504;7.416;2022-09-20T23:08:34;4.67;;;2.97;;
13687;SDS011;6916;51.504;7.416;2022-09-20T23:13:57;7.83;;;3.30;;
13687;SDS011;6916;51.504;7.416;2022-09-20T23:19:21;3.40;;;2.90;;
13687;SDS011;6916;51.504;7.416;2022-09-20T23:24:43;4.47;;;3.73;;
13687;SDS011;6916;51.504;7.416;2022-09-20T23:30:05;4.97;;;2.87;;
13687;SDS011;6916;51.504;7.416;2022-09-20T23:35:28;5.73;;;3.27;;
13687;SDS011;6916;51.504;7.416;2022-09-20T23:40:50;9.37;;;3.43;;
13687;SDS011;6916;51.504;7.416;2022-09-20T23:46:12;7.17;;;3.63;;
13687;SDS011;6916;51.504;7.416;2022-09-20T23:51:35;8.07;;;3.20;;
13687;SDS011;6916;51.504;7.416;2022-09-20T23:56:58;4.53;;;3.40;;
